createdAt,value
2023-03-05T00:01:59.212Z,1.15
2023-03-05T00:04:25.597Z,1.10
2023-03-05T00:06:52.135Z,1.08
2023-03-05T00:09:18.575Z,1.30
2023-03-05T00:11:45.017Z,0.98
2023-03-05T00:14:12.151Z,0.93
2023-03-05T00:16:38.630Z,1.27
2023-03-05T00:19:05.484Z,0.93
2023-03-05T00:21:36.483Z,1.02
2023-03-05T00:24:03.838Z,1.15
2023-03-05T00:26:30.846Z,1.10
2023-03-05T00:28:57.905Z,1.00
2023-03-05T00:31:26.014Z,1.15
2023-03-05T00:33:53.111Z,1.35
2023-03-05T00:36:19.857Z,1.10
2023-03-05T00:38:46.365Z,1.40
2023-03-05T00:41:12.838Z,1.27
2023-03-05T00:43:39.286Z,1.55
2023-03-05T00:46:05.669Z,1.70
2023-03-05T00:48:32.111Z,1.50
2023-03-05T00:50:58.524Z,1.58
2023-03-05T00:53:24.978Z,1.70
2023-03-05T00:55:51.534Z,1.88
2023-03-05T00:58:18.087Z,1.90
2023-03-05T01:00:44.607Z,1.90
2023-03-05T01:03:11.377Z,1.80
2023-03-05T01:05:37.831Z,2.20
2023-03-05T01:08:04.383Z,2.00
2023-03-05T01:10:30.797Z,2.17
2023-03-05T01:12:57.377Z,1.98
2023-03-05T01:15:24.227Z,2.35
2023-03-05T01:17:50.891Z,1.80
2023-03-05T01:20:18.602Z,2.38
2023-03-05T01:22:44.969Z,2.20
2023-03-05T01:25:12.817Z,2.30
2023-03-05T01:27:39.268Z,2.40
2023-03-05T01:30:07.816Z,2.55
2023-03-05T01:32:37.430Z,2.38
2023-03-05T01:35:04.506Z,2.42
2023-03-05T01:37:31.090Z,2.42
2023-03-05T01:39:57.499Z,2.72
2023-03-05T01:42:23.922Z,2.65
2023-03-05T01:45:10.591Z,2.47
2023-03-05T01:47:37.181Z,2.72
2023-03-05T01:50:04.734Z,2.70
2023-03-05T01:52:32.758Z,3.03
2023-03-05T01:55:01.332Z,2.50
2023-03-05T01:57:33.451Z,2.42
2023-03-05T02:00:02.463Z,2.10
2023-03-05T02:02:29.729Z,2.15
2023-03-05T02:04:59.270Z,2.50
2023-03-05T02:07:26.350Z,3.10
2023-03-05T02:09:52.829Z,2.50
2023-03-05T02:12:19.267Z,2.60
2023-03-05T02:14:48.573Z,3.15
2023-03-05T02:17:15.032Z,2.60
2023-03-05T02:19:48.842Z,2.80
2023-03-05T02:22:16.184Z,2.80
2023-03-05T02:24:42.572Z,3.15
2023-03-05T02:27:09.356Z,3.00
2023-03-05T02:29:37.664Z,3.30
2023-03-05T02:32:04.283Z,3.35
2023-03-05T02:34:30.833Z,3.47
2023-03-05T02:36:57.248Z,3.22
2023-03-05T02:39:23.774Z,3.00
2023-03-05T02:41:50.194Z,3.20
2023-03-05T02:44:16.660Z,2.95
2023-03-05T02:46:43.065Z,3.88
2023-03-05T02:49:09.505Z,3.60
2023-03-05T02:51:35.920Z,3.50
2023-03-05T02:54:02.362Z,3.55
2023-03-05T02:56:28.825Z,3.20
2023-03-05T02:58:55.320Z,3.20
2023-03-05T03:01:21.861Z,2.90
2023-03-05T03:03:48.361Z,3.08
2023-03-05T03:06:14.816Z,3.28
2023-03-05T03:08:41.247Z,3.35
2023-03-05T03:11:08.629Z,3.03
2023-03-05T03:13:35.512Z,3.00
2023-03-05T03:16:05.776Z,2.72
2023-03-05T03:18:32.179Z,2.55
2023-03-05T03:20:58.820Z,2.50
2023-03-05T03:23:25.818Z,2.25
2023-03-05T03:25:52.217Z,2.67
2023-03-05T03:28:18.661Z,2.47
2023-03-05T03:30:45.334Z,2.28
2023-03-05T03:33:11.847Z,2.47
2023-03-05T03:35:38.639Z,2.28
2023-03-05T03:38:05.139Z,2.33
2023-03-05T03:40:31.730Z,2.10
2023-03-05T03:42:58.133Z,2.30
2023-03-05T03:45:24.588Z,2.22
2023-03-05T03:47:51.406Z,2.42
2023-03-05T03:50:18.374Z,2.42
2023-03-05T03:52:44.799Z,2.10
2023-03-05T03:55:11.270Z,2.30
2023-03-05T03:57:37.679Z,1.98
2023-03-05T04:00:08.105Z,2.30
2023-03-05T04:02:34.651Z,2.30
2023-03-05T04:05:01.136Z,2.03
2023-03-05T04:07:27.527Z,1.80
2023-03-05T04:09:53.969Z,2.25
2023-03-05T04:12:20.442Z,2.08
2023-03-05T04:14:49.787Z,1.73
2023-03-05T04:17:16.558Z,1.90
2023-03-05T04:19:43.342Z,1.77
2023-03-05T04:22:13.763Z,1.75
2023-03-05T04:24:40.232Z,1.45
2023-03-05T04:27:06.840Z,1.60
2023-03-05T04:29:34.125Z,1.50
2023-03-05T04:32:00.824Z,1.80
2023-03-05T04:34:27.287Z,1.42
2023-03-05T04:36:53.711Z,1.38
2023-03-05T04:39:21.019Z,1.30
2023-03-05T04:41:47.956Z,1.35
2023-03-05T04:44:15.680Z,1.40
2023-03-05T04:46:42.173Z,1.10
2023-03-05T04:49:08.587Z,1.30
2023-03-05T04:51:35.195Z,1.20
2023-03-05T04:54:01.660Z,1.30
2023-03-05T04:56:28.075Z,1.13
2023-03-05T04:58:54.485Z,1.20
2023-03-05T05:01:20.973Z,1.00
2023-03-05T05:03:47.433Z,1.23
2023-03-05T05:06:13.853Z,1.17
2023-03-05T05:08:40.282Z,1.10
2023-03-05T05:11:08.025Z,0.98
2023-03-05T05:13:34.644Z,1.00
2023-03-05T05:16:01.098Z,0.88
2023-03-05T05:18:27.592Z,0.98
2023-03-05T05:20:53.988Z,1.13
2023-03-05T05:23:20.507Z,0.88
2023-03-05T05:25:55.272Z,1.00
2023-03-05T05:28:21.721Z,1.00
2023-03-05T05:30:48.070Z,0.90
2023-03-05T05:33:14.478Z,0.82
2023-03-05T05:35:40.930Z,0.70
2023-03-05T05:38:07.405Z,0.90
2023-03-05T05:40:33.847Z,1.10
2023-03-05T05:43:00.284Z,0.70
2023-03-05T05:45:26.835Z,0.80
2023-03-05T05:47:53.346Z,0.65
2023-03-05T05:50:20.437Z,0.90
2023-03-05T05:52:47.145Z,0.73
2023-03-05T05:55:13.651Z,0.60
2023-03-05T05:57:40.181Z,0.90
2023-03-05T06:00:07.741Z,0.68
2023-03-05T06:02:34.178Z,0.73
2023-03-05T06:05:00.526Z,0.77
2023-03-05T06:07:27.002Z,0.98
2023-03-05T06:09:53.442Z,0.68
2023-03-05T06:12:19.878Z,0.80
2023-03-05T06:14:46.224Z,0.73
2023-03-05T06:17:14.844Z,0.77
2023-03-05T06:19:43.423Z,0.63
2023-03-05T06:22:09.922Z,0.88
2023-03-05T06:24:37.096Z,0.70
2023-03-05T06:27:03.816Z,0.70
2023-03-05T06:29:30.225Z,0.70
2023-03-05T06:31:56.661Z,0.63
2023-03-05T06:34:23.113Z,0.63
2023-03-05T06:36:49.913Z,0.60
2023-03-05T06:39:16.373Z,0.65
2023-03-05T06:41:42.782Z,0.80
2023-03-05T06:44:10.038Z,0.63
2023-03-05T06:46:39.909Z,0.70
2023-03-05T06:49:07.125Z,0.55
2023-03-05T06:51:34.968Z,0.65
2023-03-05T06:54:06.117Z,0.70
2023-03-05T06:56:32.576Z,0.80
2023-03-05T06:58:59.399Z,0.98
2023-03-05T07:01:25.935Z,1.08
2023-03-05T07:03:53.399Z,1.00
2023-03-05T07:06:20.432Z,1.30
2023-03-05T07:08:47.172Z,0.95
2023-03-05T07:11:14.947Z,1.48
2023-03-05T07:13:41.764Z,1.10
2023-03-05T07:16:09.612Z,1.30
2023-03-05T07:18:36.100Z,1.40
2023-03-05T07:21:03.644Z,1.35
2023-03-05T07:23:30.088Z,1.25
2023-03-05T07:25:56.500Z,1.40
2023-03-05T07:28:22.990Z,1.20
2023-03-05T07:30:59.272Z,1.38
2023-03-05T07:33:26.096Z,1.45
2023-03-05T07:35:52.524Z,1.20
2023-03-05T07:38:19.006Z,1.77
2023-03-05T07:40:45.804Z,1.50
2023-03-05T07:43:12.275Z,1.30
2023-03-05T07:45:42.302Z,1.23
2023-03-05T07:48:12.197Z,1.20
2023-03-05T07:50:38.614Z,1.98
2023-03-05T07:53:05.028Z,1.67
2023-03-05T07:55:31.405Z,1.50
2023-03-05T07:57:57.944Z,2.00
2023-03-05T08:00:24.390Z,1.38
2023-03-05T08:02:50.921Z,1.52
2023-03-05T08:05:17.485Z,1.85
2023-03-05T08:07:43.973Z,1.40
2023-03-05T08:10:10.813Z,1.80
2023-03-05T08:12:37.324Z,2.20
2023-03-05T08:15:04.018Z,1.33
2023-03-05T08:17:30.409Z,1.23
2023-03-05T08:19:59.642Z,1.70
2023-03-05T08:22:26.561Z,1.52
2023-03-05T08:24:52.958Z,1.50
2023-03-05T08:27:19.386Z,1.52
2023-03-05T08:29:46.168Z,1.27
2023-03-05T08:32:12.726Z,1.25
2023-03-05T08:34:39.176Z,1.50
2023-03-05T08:37:06.238Z,1.33
2023-03-05T08:39:32.702Z,1.33
2023-03-05T08:41:59.193Z,1.50
2023-03-05T08:44:25.586Z,1.52
2023-03-05T08:46:52.048Z,1.00
2023-03-05T08:49:20.824Z,1.65
2023-03-05T08:51:47.344Z,1.40
2023-03-05T08:54:15.518Z,1.27
2023-03-05T08:56:41.998Z,1.20
2023-03-05T08:59:08.734Z,1.30
2023-03-05T09:01:35.272Z,1.20
2023-03-05T09:04:01.960Z,1.20
2023-03-05T09:06:28.580Z,1.30
2023-03-05T09:08:55.082Z,1.00
2023-03-05T09:11:21.824Z,1.33
2023-03-05T09:13:48.228Z,1.40
2023-03-05T09:16:16.594Z,1.10
2023-03-05T09:18:43.532Z,1.20
2023-03-05T09:21:11.766Z,0.93
2023-03-05T09:23:38.220Z,1.35
2023-03-05T09:26:05.714Z,1.27
2023-03-05T09:28:32.180Z,1.30
2023-03-05T09:31:01.750Z,1.50
2023-03-05T09:33:28.198Z,1.35
2023-03-05T09:35:54.688Z,1.00
2023-03-05T09:38:21.333Z,1.27
2023-03-05T09:41:07.747Z,1.30
2023-03-05T09:43:34.113Z,1.20
2023-03-05T09:46:06.395Z,1.10
2023-03-05T09:48:35.865Z,1.30
2023-03-05T09:51:03.443Z,1.13
2023-03-05T09:53:39.144Z,1.23
2023-03-05T09:56:23.766Z,1.70
2023-03-05T09:58:53.205Z,1.17
2023-03-05T10:01:29.208Z,1.38
2023-03-05T10:04:06.489Z,1.38
2023-03-05T10:06:36.695Z,1.55
2023-03-05T10:09:06.859Z,1.30
2023-03-05T10:11:49.251Z,1.20
2023-03-05T10:14:35.971Z,1.58
2023-03-05T10:17:05.621Z,1.20
2023-03-05T10:19:46.401Z,1.40
2023-03-05T10:22:19.236Z,1.40
2023-03-05T10:24:45.646Z,1.42
2023-03-05T10:27:19.125Z,1.33
2023-03-05T10:30:04.060Z,1.55
2023-03-05T10:32:49.364Z,1.60
2023-03-05T10:35:34.063Z,1.35
2023-03-05T10:38:19.458Z,1.33
2023-03-05T10:40:46.799Z,1.40
2023-03-05T10:43:18.354Z,1.20
2023-03-05T10:45:46.319Z,1.30
2023-03-05T10:48:24.632Z,1.35
2023-03-05T10:50:53.597Z,1.40
2023-03-05T10:53:20.021Z,1.40
2023-03-05T10:55:46.471Z,1.08
2023-03-05T10:58:14.126Z,1.35
2023-03-05T11:00:41.448Z,1.50
2023-03-05T11:03:09.424Z,1.30
2023-03-05T11:05:39.042Z,1.33
2023-03-05T11:08:23.029Z,1.23
2023-03-05T11:11:03.989Z,1.20
2023-03-05T11:13:30.888Z,1.15
2023-03-05T11:16:05.852Z,1.20
2023-03-05T11:18:34.755Z,1.27
2023-03-05T11:21:08.478Z,1.20
2023-03-05T11:23:34.862Z,1.23
2023-03-05T11:26:02.728Z,1.05
2023-03-05T11:28:33.598Z,1.50
2023-03-05T11:31:07.563Z,1.23
2023-03-05T11:33:35.800Z,1.30
2023-03-05T11:36:13.152Z,0.93
2023-03-05T11:38:51.160Z,1.08
2023-03-05T11:41:20.019Z,0.88
2023-03-05T11:43:46.522Z,1.10
2023-03-05T11:46:13.837Z,1.20
2023-03-05T11:48:41.394Z,1.10
2023-03-05T11:51:11.137Z,1.00
2023-03-05T11:53:39.057Z,1.08
2023-03-05T11:56:13.770Z,1.30
2023-03-05T11:58:40.224Z,1.17
2023-03-05T12:01:17.104Z,1.10
2023-03-05T12:03:44.019Z,1.13
2023-03-05T12:06:13.358Z,1.10
2023-03-05T12:08:42.822Z,1.45
2023-03-05T12:11:22.881Z,1.33
2023-03-05T12:13:52.438Z,1.45
2023-03-05T12:16:38.362Z,1.25
2023-03-05T12:19:19.131Z,1.20
2023-03-05T12:21:49.375Z,1.17
2023-03-05T12:24:27.895Z,1.40
2023-03-05T12:26:57.092Z,1.20
2023-03-05T12:29:27.783Z,1.52
2023-03-05T12:31:54.304Z,1.20
2023-03-05T12:34:39.331Z,1.42
2023-03-05T12:37:10.663Z,1.33
2023-03-05T12:39:40.369Z,1.10
2023-03-05T12:42:25.579Z,0.95
2023-03-05T12:45:14.607Z,1.48
2023-03-05T12:47:48.465Z,1.30
2023-03-05T12:50:26.988Z,1.10
2023-03-05T12:52:57.986Z,1.10
2023-03-05T12:55:27.334Z,1.52
2023-03-05T12:57:58.224Z,1.00
2023-03-05T13:00:24.597Z,0.98
2023-03-05T13:02:56.188Z,1.00
2023-03-05T13:05:31.978Z,1.10
2023-03-05T13:08:20.447Z,1.02
2023-03-05T13:10:51.569Z,1.10
2023-03-05T13:13:19.568Z,0.77
2023-03-05T13:15:50.453Z,0.80
2023-03-05T13:18:19.347Z,0.80
2023-03-05T13:20:45.775Z,1.00
2023-03-05T13:23:18.186Z,1.00
2023-03-05T13:28:15.242Z,1.00
2023-03-05T13:30:50.274Z,0.70
2023-03-05T13:33:18.047Z,1.10
2023-03-05T13:35:45.696Z,0.73
2023-03-05T13:38:23.438Z,0.68
2023-03-05T13:41:07.411Z,0.95
2023-03-05T13:43:34.248Z,0.60
2023-03-05T13:46:00.725Z,1.08
2023-03-05T13:48:28.880Z,0.70
2023-03-05T13:50:58.402Z,0.90
2023-03-05T13:53:26.770Z,1.13
2023-03-05T13:55:55.432Z,0.90
2023-03-05T13:58:40.796Z,1.00
2023-03-05T14:01:13.550Z,0.93
2023-03-05T14:03:40.479Z,0.70
2023-03-05T14:06:11.549Z,0.77
2023-03-05T14:08:38.103Z,1.15
2023-03-05T14:11:15.624Z,1.08
2023-03-05T14:13:42.338Z,0.90
2023-03-05T14:16:13.478Z,0.65
2023-03-05T14:18:51.829Z,1.08
2023-03-05T14:21:18.959Z,0.90
2023-03-05T14:23:49.500Z,0.90
2023-03-05T14:26:28.636Z,0.65
2023-03-05T14:29:03.192Z,1.05
2023-03-05T14:31:31.353Z,0.80
2023-03-05T14:34:02.841Z,0.82
2023-03-05T14:36:30.593Z,0.80
2023-03-05T14:38:57.011Z,0.80
2023-03-05T14:41:40.192Z,0.80
2023-03-05T14:44:14.267Z,0.80
2023-03-05T14:46:41.842Z,0.88
2023-03-05T14:49:08.470Z,0.90
2023-03-05T14:51:37.624Z,0.63
2023-03-05T14:54:04.367Z,0.85
2023-03-05T14:56:30.884Z,0.75
2023-03-05T14:59:00.250Z,0.90
2023-03-05T15:01:26.824Z,0.80
2023-03-05T15:03:53.303Z,0.60
2023-03-05T15:06:30.408Z,0.80
2023-03-05T15:08:57.068Z,0.80
2023-03-05T15:11:23.512Z,0.68
2023-03-05T15:13:52.873Z,0.70
2023-03-05T15:16:19.799Z,0.85
2023-03-05T15:18:46.311Z,1.00
2023-03-05T15:21:12.833Z,0.77
2023-03-05T15:23:39.540Z,0.65
2023-03-05T15:26:07.527Z,0.75
2023-03-05T15:28:36.055Z,0.82
2023-03-05T15:31:03.997Z,0.63
2023-03-05T15:33:30.582Z,0.60
2023-03-05T15:35:57.536Z,0.70
2023-03-05T15:38:24.474Z,0.70
2023-03-05T15:40:51.222Z,0.70
2023-03-05T15:43:18.055Z,1.00
2023-03-05T15:45:44.573Z,0.93
2023-03-05T15:48:11.040Z,0.85
2023-03-05T15:50:40.469Z,0.82
2023-03-05T15:53:16.439Z,0.70
2023-03-05T15:55:43.665Z,0.95
2023-03-05T15:58:13.333Z,0.68
2023-03-05T16:00:40.867Z,1.00
2023-03-05T16:03:07.431Z,0.85
2023-03-05T16:05:35.399Z,0.95
2023-03-05T16:08:02.000Z,1.00
2023-03-05T16:10:29.098Z,0.68
2023-03-05T16:12:58.002Z,1.00
2023-03-05T16:15:24.552Z,0.82
2023-03-05T16:17:53.322Z,0.80
2023-03-05T16:20:20.002Z,1.00
2023-03-05T16:22:46.632Z,1.10
2023-03-05T16:25:13.175Z,0.90
2023-03-05T16:27:39.571Z,0.80
2023-03-05T16:30:06.278Z,1.10
2023-03-05T16:32:32.708Z,0.93
2023-03-05T16:34:59.235Z,0.95
2023-03-05T16:37:25.851Z,0.90
2023-03-05T16:39:52.540Z,0.85
2023-03-05T16:42:19.179Z,0.98
2023-03-05T16:44:47.026Z,1.10
2023-03-05T16:47:13.513Z,1.00
2023-03-05T16:49:39.977Z,0.98
2023-03-05T16:52:18.261Z,1.00
2023-03-05T16:54:45.457Z,1.20
2023-03-05T16:57:12.025Z,1.20
2023-03-05T16:59:38.427Z,1.40
2023-03-05T17:02:04.974Z,1.40
2023-03-05T17:04:31.913Z,1.70
2023-03-05T17:06:58.418Z,1.48
2023-03-05T17:09:24.894Z,1.60
2023-03-05T17:11:52.078Z,1.60
2023-03-05T17:14:18.522Z,1.90
2023-03-05T17:16:45.791Z,2.00
2023-03-05T17:19:12.569Z,2.03
2023-03-05T17:21:41.314Z,2.08
2023-03-05T17:24:09.075Z,1.80
2023-03-05T17:26:38.333Z,2.00
2023-03-05T17:29:05.406Z,2.00
2023-03-05T17:31:32.293Z,2.25
2023-03-05T17:33:58.808Z,2.00
2023-03-05T17:36:25.306Z,2.20
2023-03-05T17:38:52.136Z,2.30
2023-03-05T17:41:19.469Z,2.20
2023-03-05T17:43:46.601Z,2.03
2023-03-05T17:46:13.163Z,1.83
2023-03-05T17:48:39.596Z,2.03
2023-03-05T17:51:06.999Z,2.47
2023-03-05T17:53:35.097Z,2.45
2023-03-05T17:56:01.813Z,2.60
2023-03-05T17:58:28.195Z,2.28
2023-03-05T18:00:54.616Z,2.47
2023-03-05T18:03:21.052Z,2.30
2023-03-05T18:05:47.440Z,2.47
2023-03-05T18:08:14.135Z,2.67
2023-03-05T18:10:40.680Z,2.20
2023-03-05T18:13:07.121Z,2.42
2023-03-05T18:15:33.592Z,2.50
2023-03-05T18:18:00.299Z,2.70
2023-03-05T18:20:29.401Z,2.35
2023-03-05T18:22:56.461Z,2.90
2023-03-05T18:25:25.847Z,3.08
2023-03-05T18:27:53.121Z,3.17
2023-03-05T18:30:19.619Z,2.92
2023-03-05T18:32:47.509Z,3.30
2023-03-05T18:35:14.265Z,3.47
2023-03-05T18:37:40.664Z,3.20
2023-03-05T18:40:09.699Z,3.30
2023-03-05T18:42:36.793Z,3.40
2023-03-05T18:45:07.016Z,3.63
2023-03-05T18:47:33.895Z,3.80
2023-03-05T18:50:00.393Z,3.92
2023-03-05T18:52:26.853Z,3.88
2023-03-05T18:54:53.407Z,3.75
2023-03-05T18:57:19.771Z,4.22
2023-03-05T18:59:46.190Z,4.25
2023-03-05T19:02:16.367Z,4.18
2023-03-05T19:04:43.503Z,4.15
2023-03-05T19:07:10.405Z,3.95
2023-03-05T19:09:59.664Z,4.13
2023-03-05T19:12:30.967Z,4.10
2023-03-05T19:14:58.181Z,3.80
2023-03-05T19:17:24.708Z,4.30
2023-03-05T19:19:54.818Z,4.00
2023-03-05T19:22:21.703Z,4.10
2023-03-05T19:24:48.152Z,3.92
2023-03-05T19:27:14.652Z,3.90
2023-03-05T19:29:42.323Z,4.18
2023-03-05T19:32:09.972Z,4.68
2023-03-05T19:34:36.777Z,4.20
2023-03-05T19:37:04.300Z,4.57
2023-03-05T19:39:31.272Z,3.97
2023-03-05T19:41:57.741Z,4.18
2023-03-05T19:44:24.572Z,4.10
2023-03-05T19:46:50.965Z,3.67
2023-03-05T19:49:18.345Z,4.05
2023-03-05T19:51:45.599Z,4.05
2023-03-05T19:54:13.262Z,4.10
2023-03-05T19:56:40.387Z,4.63
2023-03-05T19:59:06.868Z,4.03
2023-03-05T20:01:33.345Z,4.13
2023-03-05T20:04:00.551Z,3.90
2023-03-05T20:06:28.119Z,4.10
2023-03-05T20:08:55.006Z,3.88
2023-03-05T20:11:22.270Z,4.20
2023-03-05T20:13:48.982Z,3.95
2023-03-05T20:16:19.622Z,4.40
2023-03-05T20:18:46.708Z,4.63
2023-03-05T20:21:18.696Z,4.47
2023-03-05T20:23:45.106Z,4.28
2023-03-05T20:26:11.513Z,3.95
2023-03-05T20:28:37.989Z,4.30
2023-03-05T20:31:04.462Z,4.13
2023-03-05T20:33:30.929Z,3.90
2023-03-05T20:35:57.542Z,4.22
2023-03-05T20:38:30.259Z,4.05
2023-03-05T20:41:01.324Z,4.45
2023-03-05T20:43:29.163Z,4.18
2023-03-05T20:45:59.058Z,4.18
2023-03-05T20:48:26.657Z,4.25
2023-03-05T20:50:53.236Z,4.30
2023-03-05T20:53:19.684Z,4.45
2023-03-05T20:55:46.491Z,5.00
2023-03-05T20:58:13.436Z,5.03
2023-03-05T21:00:43.410Z,5.22
2023-03-05T21:03:10.591Z,4.70
2023-03-05T21:05:37.162Z,4.85
2023-03-05T21:08:06.797Z,4.70
2023-03-05T21:10:33.337Z,4.53
2023-03-05T21:13:00.959Z,4.70
2023-03-05T21:15:28.954Z,4.30
2023-03-05T21:17:55.498Z,5.22
2023-03-05T21:20:23.234Z,4.68
2023-03-05T21:22:49.657Z,4.38
2023-03-05T21:25:23.125Z,4.72
2023-03-05T21:28:00.181Z,4.68
2023-03-05T21:30:31.622Z,4.93
2023-03-05T21:33:02.497Z,4.68
2023-03-05T21:35:29.713Z,4.93
2023-03-05T21:37:56.138Z,4.65
2023-03-05T21:40:22.642Z,4.45
2023-03-05T21:42:49.184Z,4.57
2023-03-05T21:45:17.833Z,4.38
2023-03-05T21:47:44.391Z,4.20
2023-03-05T21:50:14.765Z,4.07
2023-03-05T21:52:41.500Z,4.10
2023-03-05T21:55:08.571Z,4.63
2023-03-05T21:57:34.936Z,3.78
2023-03-05T22:00:01.319Z,3.63
2023-03-05T22:02:28.371Z,3.63
2023-03-05T22:04:54.839Z,3.72
2023-03-05T22:07:21.316Z,3.65
2023-03-05T22:09:47.829Z,4.03
2023-03-05T22:12:20.226Z,3.33
2023-03-05T22:17:12.947Z,3.47
2023-03-05T22:19:39.344Z,3.78
2023-03-05T22:22:05.776Z,3.97
2023-03-05T22:24:32.179Z,3.58
2023-03-05T22:26:58.620Z,3.05
2023-03-05T22:29:26.911Z,3.65
2023-03-05T22:31:54.235Z,3.70
2023-03-05T22:34:20.637Z,3.50
2023-03-05T22:36:47.030Z,3.40
2023-03-05T22:39:13.442Z,3.55
2023-03-05T22:41:41.031Z,3.47
2023-03-05T22:44:07.480Z,3.40
2023-03-05T22:46:33.964Z,3.50
2023-03-05T22:49:00.398Z,3.70
2023-03-05T22:51:26.812Z,3.40
2023-03-05T22:53:53.225Z,3.20
2023-03-05T22:56:20.427Z,3.17
2023-03-05T22:58:47.157Z,3.35
2023-03-05T23:01:15.393Z,3.40
2023-03-05T23:03:57.212Z,3.50
2023-03-05T23:06:23.639Z,3.45
2023-03-05T23:08:50.029Z,3.72
2023-03-05T23:11:16.574Z,3.50
2023-03-05T23:13:43.022Z,3.50
2023-03-05T23:16:09.847Z,3.15
2023-03-05T23:18:36.572Z,3.13
2023-03-05T23:21:03.072Z,3.08
2023-03-05T23:23:29.524Z,2.85
2023-03-05T23:25:55.963Z,3.13
2023-03-05T23:28:22.383Z,3.10
2023-03-05T23:30:48.886Z,3.13
2023-03-05T23:33:19.755Z,2.95
2023-03-05T23:35:50.883Z,2.78
2023-03-05T23:38:17.341Z,3.03
2023-03-05T23:40:45.308Z,3.15
2023-03-05T23:43:11.994Z,2.65
2023-03-05T23:45:40.183Z,2.72
2023-03-05T23:48:06.669Z,3.08
2023-03-05T23:50:34.406Z,2.80
2023-03-05T23:53:02.241Z,2.63
2023-03-05T23:55:31.804Z,2.83
2023-03-05T23:57:58.570Z,2.88
